sensor_id;sensor_type;location;lat;lon;timestamp;pressure;altitude;pressure_sealevel;temperature;humidity
32873;BME280;19224;52.462;16.898;2023-03-18T00:01:55;100208.14;;;5.95;76.92
32873;BME280;19224;52.462;16.898;2023-03-18T00:04:25;100210.41;;;5.94;77.06
32873;BME280;19224;52.462;16.898;2023-03-18T00:06:59;100218.45;;;5.92;76.96
32873;BME280;19224;52.462;16.898;2023-03-18T00:09:29;100214.92;;;5.92;76.94
32873;BME280;19224;52.462;16.898;2023-03-18T00:12:00;100205.16;;;5.91;76.92
32873;BME280;19224;52.462;16.898;2023-03-18T00:14:30;100211.00;;;5.89;77.18
32873;BME280;19224;52.462;16.898;2023-03-18T00:17:00;100212.40;;;5.86;77.07
32873;BME280;19224;52.462;16.898;2023-03-18T00:19:31;100204.45;;;5.84;77.16
32873;BME280;19224;52.462;16.898;2023-03-18T00:22:01;100198.20;;;5.84;77.07
32873;BME280;19224;52.462;16.898;2023-03-18T00:24:32;100199.70;;;5.78;77.17
32873;BME280;19224;52.462;16.898;2023-03-18T00:27:03;100194.83;;;5.76;77.31
32873;BME280;19224;52.462;16.898;2023-03-18T00:29:33;100196.14;;;5.79;77.28
32873;BME280;19224;52.462;16.898;2023-03-18T00:32:04;100202.84;;;5.76;77.37
32873;BME280;19224;52.462;16.898;2023-03-18T00:34:35;100196.25;;;5.73;77.55
32873;BME280;19224;52.462;16.898;2023-03-18T00:37:05;100186.93;;;5.71;77.74
32873;BME280;19224;52.462;16.898;2023-03-18T00:39:36;100186.52;;;5.70;77.73
32873;BME280;19224;52.462;16.898;2023-03-18T00:42:07;100181.74;;;5.67;77.94
32873;BME280;19224;52.462;16.898;2023-03-18T00:44:39;100182.58;;;5.69;77.88
32873;BME280;19224;52.462;16.898;2023-03-18T00:47:11;100174.14;;;5.68;77.92
32873;BME280;19224;52.462;16.898;2023-03-18T00:49:41;100173.25;;;5.67;78.15
32873;BME280;19224;52.462;16.898;2023-03-18T00:52:11;100178.63;;;5.66;77.95
32873;BME280;19224;52.462;16.898;2023-03-18T00:54:42;100170.28;;;5.62;78.19
32873;BME280;19224;52.462;16.898;2023-03-18T00:57:14;100175.66;;;5.60;78.24
32873;BME280;19224;52.462;16.898;2023-03-18T00:59:44;100172.55;;;5.61;78.21
32873;BME280;19224;52.462;16.898;2023-03-18T01:02:16;100173.05;;;5.59;78.15
32873;BME280;19224;52.462;16.898;2023-03-18T01:04:47;100166.78;;;5.60;78.06
32873;BME280;19224;52.462;16.898;2023-03-18T01:07:18;100160.14;;;5.58;78.23
32873;BME280;19224;52.462;16.898;2023-03-18T01:09:48;100160.23;;;5.55;78.35
32873;BME280;19224;52.462;16.898;2023-03-18T01:12:19;100156.73;;;5.53;78.50
32873;BME280;19224;52.462;16.898;2023-03-18T01:14:49;100154.91;;;5.54;78.50
32873;BME280;19224;52.462;16.898;2023-03-18T01:17:20;100154.15;;;5.50;78.54
32873;BME280;19224;52.462;16.898;2023-03-18T01:19:51;100160.77;;;5.52;78.55
32873;BME280;19224;52.462;16.898;2023-03-18T01:22:21;100161.36;;;5.47;78.72
32873;BME280;19224;52.462;16.898;2023-03-18T01:24:52;100157.41;;;5.44;79.00
32873;BME280;19224;52.462;16.898;2023-03-18T01:27:31;100158.42;;;5.40;78.99
32873;BME280;19224;52.462;16.898;2023-03-18T01:29:58;100169.58;;;5.39;79.25
32873;BME280;19224;52.462;16.898;2023-03-18T01:32:30;100165.60;;;5.38;79.21
32873;BME280;19224;52.462;16.898;2023-03-18T01:35:01;100164.70;;;5.37;79.33
32873;BME280;19224;52.462;16.898;2023-03-18T01:37:34;100163.94;;;5.34;79.60
32873;BME280;19224;52.462;16.898;2023-03-18T01:40:08;100162.52;;;5.37;79.24
32873;BME280;19224;52.462;16.898;2023-03-18T01:42:39;100158.59;;;5.34;79.38
32873;BME280;19224;52.462;16.898;2023-03-18T01:45:22;100160.82;;;5.33;79.43
32873;BME280;19224;52.462;16.898;2023-03-18T01:47:54;100163.55;;;5.31;79.26
32873;BME280;19224;52.462;16.898;2023-03-18T01:50:35;100159.58;;;5.30;79.33
32873;BME280;19224;52.462;16.898;2023-03-18T01:53:11;100156.48;;;5.29;79.37
32873;BME280;19224;52.462;16.898;2023-03-18T01:55:42;100162.30;;;5.28;79.32
32873;BME280;19224;52.462;16.898;2023-03-18T01:58:26;100156.48;;;5.29;79.39
32873;BME280;19224;52.462;16.898;2023-03-18T02:03:49;100153.13;;;5.21;79.54
32873;BME280;19224;52.462;16.898;2023-03-18T02:06:20;100156.21;;;5.22;79.27
32873;BME280;19224;52.462;16.898;2023-03-18T02:08:50;100157.70;;;5.17;79.36
32873;BME280;19224;52.462;16.898;2023-03-18T02:11:21;100154.55;;;5.18;79.45
32873;BME280;19224;52.462;16.898;2023-03-18T02:13:53;100162.47;;;5.21;79.37
32873;BME280;19224;52.462;16.898;2023-03-18T02:16:33;100155.80;;;5.21;79.25
32873;BME280;19224;52.462;16.898;2023-03-18T02:28:12;100152.11;;;5.09;79.65
32873;BME280;19224;52.462;16.898;2023-03-18T02:30:46;100149.94;;;5.07;79.95
32873;BME280;19224;52.462;16.898;2023-03-18T02:33:20;100154.78;;;5.09;80.01
32873;BME280;19224;52.462;16.898;2023-03-18T02:36:06;100150.36;;;5.08;79.72
32873;BME280;19224;52.462;16.898;2023-03-18T02:38:31;100145.52;;;5.06;79.92
32873;BME280;19224;52.462;16.898;2023-03-18T02:41:01;100152.19;;;5.06;80.04
32873;BME280;19224;52.462;16.898;2023-03-18T02:43:32;100147.80;;;5.03;80.22
32873;BME280;19224;52.462;16.898;2023-03-18T02:46:28;100142.52;;;5.02;80.31
32873;BME280;19224;52.462;16.898;2023-03-18T02:49:01;100136.88;;;4.96;80.55
32873;BME280;19224;52.462;16.898;2023-03-18T02:51:34;100140.08;;;4.93;81.00
32873;BME280;19224;52.462;16.898;2023-03-18T02:54:14;100144.52;;;4.92;80.79
32873;BME280;19224;52.462;16.898;2023-03-18T02:56:45;100142.72;;;4.94;80.56
32873;BME280;19224;52.462;16.898;2023-03-18T02:59:16;100136.63;;;4.88;80.96
32873;BME280;19224;52.462;16.898;2023-03-18T03:01:49;100140.27;;;4.85;80.90
32873;BME280;19224;52.462;16.898;2023-03-18T03:04:24;100143.44;;;4.83;80.98
32873;BME280;19224;52.462;16.898;2023-03-18T03:06:57;100145.30;;;4.80;81.36
32873;BME280;19224;52.462;16.898;2023-03-18T03:09:29;100145.80;;;4.78;81.50
32873;BME280;19224;52.462;16.898;2023-03-18T03:11:59;100144.93;;;4.76;81.35
32873;BME280;19224;52.462;16.898;2023-03-18T03:14:30;100139.16;;;4.76;81.38
32873;BME280;19224;52.462;16.898;2023-03-18T03:17:00;100147.16;;;4.76;81.40
32873;BME280;19224;52.462;16.898;2023-03-18T03:19:32;100144.48;;;4.76;81.37
32873;BME280;19224;52.462;16.898;2023-03-18T03:22:02;100150.77;;;4.74;81.13
32873;BME280;19224;52.462;16.898;2023-03-18T03:24:33;100152.18;;;4.71;81.22
32873;BME280;19224;52.462;16.898;2023-03-18T03:27:04;100157.54;;;4.69;81.51
32873;BME280;19224;52.462;16.898;2023-03-18T03:29:35;100160.27;;;4.68;81.40
32873;BME280;19224;52.462;16.898;2023-03-18T03:32:06;100160.28;;;4.66;81.46
32873;BME280;19224;52.462;16.898;2023-03-18T03:34:37;100165.09;;;4.70;81.39
32873;BME280;19224;52.462;16.898;2023-03-18T03:37:08;100165.53;;;4.69;81.50
32873;BME280;19224;52.462;16.898;2023-03-18T03:39:38;100161.18;;;4.67;81.44
32873;BME280;19224;52.462;16.898;2023-03-18T03:42:09;100164.73;;;4.66;81.49
32873;BME280;19224;52.462;16.898;2023-03-18T03:44:39;100161.64;;;4.65;81.57
32873;BME280;19224;52.462;16.898;2023-03-18T03:47:10;100165.18;;;4.67;81.46
32873;BME280;19224;52.462;16.898;2023-03-18T03:49:41;100159.84;;;4.67;81.25
32873;BME280;19224;52.462;16.898;2023-03-18T03:52:12;100162.43;;;4.70;80.95
32873;BME280;19224;52.462;16.898;2023-03-18T03:54:42;100170.77;;;4.74;80.75
32873;BME280;19224;52.462;16.898;2023-03-18T03:57:12;100163.60;;;4.76;80.48
32873;BME280;19224;52.462;16.898;2023-03-18T03:59:43;100159.47;;;4.82;79.87
32873;BME280;19224;52.462;16.898;2023-03-18T04:02:13;100159.39;;;4.85;79.71
32873;BME280;19224;52.462;16.898;2023-03-18T04:04:44;100157.11;;;4.87;79.50
32873;BME280;19224;52.462;16.898;2023-03-18T04:07:14;100154.33;;;4.92;79.30
32873;BME280;19224;52.462;16.898;2023-03-18T04:09:45;100165.42;;;4.93;79.22
32873;BME280;19224;52.462;16.898;2023-03-18T04:12:15;100167.48;;;4.99;78.94
32873;BME280;19224;52.462;16.898;2023-03-18T04:14:49;100162.54;;;5.02;78.72
32873;BME280;19224;52.462;16.898;2023-03-18T04:17:21;100159.87;;;5.02;78.66
32873;BME280;19224;52.462;16.898;2023-03-18T04:19:52;100164.62;;;5.07;78.74
32873;BME280;19224;52.462;16.898;2023-03-18T04:22:23;100162.87;;;5.06;78.45
32873;BME280;19224;52.462;16.898;2023-03-18T04:24:53;100162.31;;;5.11;78.47
32873;BME280;19224;52.462;16.898;2023-03-18T04:27:25;100159.25;;;5.08;78.52
32873;BME280;19224;52.462;16.898;2023-03-18T04:29:56;100156.61;;;5.07;78.68
32873;BME280;19224;52.462;16.898;2023-03-18T04:32:26;100153.53;;;5.06;78.79
32873;BME280;19224;52.462;16.898;2023-03-18T04:34:57;100156.61;;;5.07;78.86
32873;BME280;19224;52.462;16.898;2023-03-18T04:37:28;100154.03;;;5.04;79.11
32873;BME280;19224;52.462;16.898;2023-03-18T04:40:01;100150.42;;;5.06;78.87
32873;BME280;19224;52.462;16.898;2023-03-18T04:42:36;100154.36;;;5.08;78.86
32873;BME280;19224;52.462;16.898;2023-03-18T04:45:10;100153.44;;;5.09;78.59
32873;BME280;19224;52.462;16.898;2023-03-18T04:47:43;100160.98;;;5.11;78.40
32873;BME280;19224;52.462;16.898;2023-03-18T04:50:17;100149.09;;;5.06;78.41
32873;BME280;19224;52.462;16.898;2023-03-18T04:52:48;100151.25;;;5.08;78.39
32873;BME280;19224;52.462;16.898;2023-03-18T04:55:26;100155.55;;;5.14;78.25
32873;BME280;19224;52.462;16.898;2023-03-18T04:58:03;100148.97;;;5.11;78.13
32873;BME280;19224;52.462;16.898;2023-03-18T05:00:34;100140.88;;;5.14;77.96
32873;BME280;19224;52.462;16.898;2023-03-18T05:03:05;100141.20;;;5.18;77.50
32873;BME280;19224;52.462;16.898;2023-03-18T05:05:36;100144.38;;;5.16;77.29
32873;BME280;19224;52.462;16.898;2023-03-18T05:08:11;100145.71;;;5.16;77.43
32873;BME280;19224;52.462;16.898;2023-03-18T05:10:43;100155.36;;;5.21;77.23
32873;BME280;19224;52.462;16.898;2023-03-18T05:13:13;100159.78;;;5.22;77.07
32873;BME280;19224;52.462;16.898;2023-03-18T05:15:48;100162.42;;;5.24;76.99
32873;BME280;19224;52.462;16.898;2023-03-18T05:18:19;100160.70;;;5.21;76.96
32873;BME280;19224;52.462;16.898;2023-03-18T05:20:49;100160.16;;;5.25;76.58
32873;BME280;19224;52.462;16.898;2023-03-18T05:23:24;100159.33;;;5.23;76.48
32873;BME280;19224;52.462;16.898;2023-03-18T05:25:53;100158.00;;;5.23;76.63
32873;BME280;19224;52.462;16.898;2023-03-18T05:28:24;100152.06;;;5.28;76.50
32873;BME280;19224;52.462;16.898;2023-03-18T05:30:55;100152.48;;;5.29;76.42
32873;BME280;19224;52.462;16.898;2023-03-18T05:33:25;100154.32;;;5.27;76.39
32873;BME280;19224;52.462;16.898;2023-03-18T05:35:56;100153.49;;;5.25;76.13
32873;BME280;19224;52.462;16.898;2023-03-18T05:38:28;100155.06;;;5.32;76.26
32873;BME280;19224;52.462;16.898;2023-03-18T05:40:59;100151.92;;;5.34;76.10
32873;BME280;19224;52.462;16.898;2023-03-18T05:43:31;100151.75;;;5.40;75.60
32873;BME280;19224;52.462;16.898;2023-03-18T05:46:02;100154.00;;;5.39;75.41
32873;BME280;19224;52.462;16.898;2023-03-18T05:48:41;100150.41;;;5.40;75.54
32873;BME280;19224;52.462;16.898;2023-03-18T05:51:12;100145.48;;;5.41;75.48
32873;BME280;19224;52.462;16.898;2023-03-18T05:53:44;100152.25;;;5.38;75.71
32873;BME280;19224;52.462;16.898;2023-03-18T05:56:17;100147.92;;;5.34;76.10
32873;BME280;19224;52.462;16.898;2023-03-18T05:58:51;100146.44;;;5.38;75.92
32873;BME280;19224;52.462;16.898;2023-03-18T06:01:22;100143.64;;;5.43;75.85
32873;BME280;19224;52.462;16.898;2023-03-18T06:03:54;100141.39;;;5.44;75.85
32873;BME280;19224;52.462;16.898;2023-03-18T06:06:27;100140.41;;;5.48;75.47
32873;BME280;19224;52.462;16.898;2023-03-18T06:08:57;100141.56;;;5.54;75.24
32873;BME280;19224;52.462;16.898;2023-03-18T06:11:30;100152.52;;;5.61;74.68
32873;BME280;19224;52.462;16.898;2023-03-18T06:14:02;100146.16;;;5.65;74.48
32873;BME280;19224;52.462;16.898;2023-03-18T06:16:33;100157.48;;;5.74;73.70
32873;BME280;19224;52.462;16.898;2023-03-18T06:19:05;100151.06;;;5.81;73.56
32873;BME280;19224;52.462;16.898;2023-03-18T06:21:35;100152.87;;;5.81;73.39
32873;BME280;19224;52.462;16.898;2023-03-18T06:24:10;100158.70;;;5.95;73.11
32873;BME280;19224;52.462;16.898;2023-03-18T06:26:43;100147.27;;;6.04;72.57
32873;BME280;19224;52.462;16.898;2023-03-18T06:29:13;100151.84;;;6.15;71.96
32873;BME280;19224;52.462;16.898;2023-03-18T06:31:44;100157.67;;;6.15;71.81
32873;BME280;19224;52.462;16.898;2023-03-18T06:34:17;100150.86;;;6.19;71.55
32873;BME280;19224;52.462;16.898;2023-03-18T06:36:49;100147.36;;;6.17;71.44
32873;BME280;19224;52.462;16.898;2023-03-18T06:39:20;100160.50;;;6.25;71.15
32873;BME280;19224;52.462;16.898;2023-03-18T06:41:50;100164.66;;;6.35;70.68
32873;BME280;19224;52.462;16.898;2023-03-18T06:44:25;100160.03;;;6.40;70.37
32873;BME280;19224;52.462;16.898;2023-03-18T06:46:59;100164.18;;;6.50;69.72
32873;BME280;19224;52.462;16.898;2023-03-18T06:49:34;100163.08;;;6.57;69.63
32873;BME280;19224;52.462;16.898;2023-03-18T06:52:05;100166.98;;;6.60;68.80
32873;BME280;19224;52.462;16.898;2023-03-18T06:54:35;100167.70;;;6.65;68.44
32873;BME280;19224;52.462;16.898;2023-03-18T06:57:05;100158.00;;;6.62;68.32
32873;BME280;19224;52.462;16.898;2023-03-18T06:59:36;100166.37;;;6.65;68.26
32873;BME280;19224;52.462;16.898;2023-03-18T07:02:10;100161.80;;;6.68;68.13
32873;BME280;19224;52.462;16.898;2023-03-18T07:04:40;100164.72;;;6.75;68.00
32873;BME280;19224;52.462;16.898;2023-03-18T07:07:11;100170.09;;;6.88;67.79
32873;BME280;19224;52.462;16.898;2023-03-18T07:09:42;100166.03;;;6.90;67.16
32873;BME280;19224;52.462;16.898;2023-03-18T07:12:13;100178.80;;;6.95;67.35
32873;BME280;19224;52.462;16.898;2023-03-18T07:14:44;100175.01;;;7.02;67.12
32873;BME280;19224;52.462;16.898;2023-03-18T07:17:15;100175.72;;;7.06;67.01
32873;BME280;19224;52.462;16.898;2023-03-18T07:19:45;100181.85;;;7.10;66.76
32873;BME280;19224;52.462;16.898;2023-03-18T07:22:16;100172.75;;;7.15;66.81
32873;BME280;19224;52.462;16.898;2023-03-18T07:24:46;100174.23;;;7.24;66.42
32873;BME280;19224;52.462;16.898;2023-03-18T07:27:17;100171.70;;;7.32;65.90
32873;BME280;19224;52.462;16.898;2023-03-18T07:29:47;100170.17;;;7.38;65.35
32873;BME280;19224;52.462;16.898;2023-03-18T07:32:17;100176.86;;;7.38;65.35
32873;BME280;19224;52.462;16.898;2023-03-18T07:34:47;100173.40;;;7.48;65.17
32873;BME280;19224;52.462;16.898;2023-03-18T07:37:18;100169.63;;;7.53;65.13
32873;BME280;19224;52.462;16.898;2023-03-18T07:39:48;100171.06;;;7.63;64.94
32873;BME280;19224;52.462;16.898;2023-03-18T07:42:18;100178.91;;;7.69;64.31
32873;BME280;19224;52.462;16.898;2023-03-18T07:44:50;100172.91;;;7.74;64.05
32873;BME280;19224;52.462;16.898;2023-03-18T07:47:20;100172.70;;;7.80;63.95
32873;BME280;19224;52.462;16.898;2023-03-18T07:49:52;100174.45;;;7.93;63.65
32873;BME280;19224;52.462;16.898;2023-03-18T07:52:22;100172.80;;;8.02;63.60
32873;BME280;19224;52.462;16.898;2023-03-18T07:54:53;100172.42;;;8.12;62.98
32873;BME280;19224;52.462;16.898;2023-03-18T07:57:29;100181.38;;;8.24;62.71
32873;BME280;19224;52.462;16.898;2023-03-18T07:59:59;100181.73;;;8.38;62.52
32873;BME280;19224;52.462;16.898;2023-03-18T08:02:31;100185.29;;;8.50;62.28
32873;BME280;19224;52.462;16.898;2023-03-18T08:05:03;100188.84;;;8.62;61.31
32873;BME280;19224;52.462;16.898;2023-03-18T08:07:36;100182.99;;;8.74;60.60
32873;BME280;19224;52.462;16.898;2023-03-18T08:10:09;100187.78;;;8.78;60.54
32873;BME280;19224;52.462;16.898;2023-03-18T08:12:40;100188.90;;;8.84;60.15
32873;BME280;19224;52.462;16.898;2023-03-18T08:15:11;100196.34;;;8.99;59.39
32873;BME280;19224;52.462;16.898;2023-03-18T08:17:41;100184.69;;;9.10;59.16
32873;BME280;19224;52.462;16.898;2023-03-18T08:20:13;100200.77;;;9.21;59.06
32873;BME280;19224;52.462;16.898;2023-03-18T08:22:43;100198.52;;;9.32;58.74
32873;BME280;19224;52.462;16.898;2023-03-18T08:25:13;100191.44;;;9.51;58.62
32873;BME280;19224;52.462;16.898;2023-03-18T08:27:44;100196.05;;;9.69;57.73
32873;BME280;19224;52.462;16.898;2023-03-18T08:30:14;100193.28;;;9.80;56.60
32873;BME280;19224;52.462;16.898;2023-03-18T08:32:45;100188.80;;;9.91;55.82
32873;BME280;19224;52.462;16.898;2023-03-18T08:35:16;100193.78;;;10.00;55.47
32873;BME280;19224;52.462;16.898;2023-03-18T08:37:49;100190.18;;;10.11;55.38
32873;BME280;19224;52.462;16.898;2023-03-18T08:40:21;100184.70;;;10.22;54.40
32873;BME280;19224;52.462;16.898;2023-03-18T08:42:54;100183.30;;;10.34;54.17
32873;BME280;19224;52.462;16.898;2023-03-18T08:45:24;100181.89;;;10.44;53.75
32873;BME280;19224;52.462;16.898;2023-03-18T08:47:56;100189.84;;;10.57;53.12
32873;BME280;19224;52.462;16.898;2023-03-18T08:50:28;100186.59;;;10.59;52.75
32873;BME280;19224;52.462;16.898;2023-03-18T08:52:59;100182.95;;;10.60;53.19
32873;BME280;19224;52.462;16.898;2023-03-18T08:55:34;100189.47;;;10.64;52.56
32873;BME280;19224;52.462;16.898;2023-03-18T08:58:07;100183.91;;;10.77;52.57
32873;BME280;19224;52.462;16.898;2023-03-18T09:00:39;100189.59;;;10.90;51.76
32873;BME280;19224;52.462;16.898;2023-03-18T09:03:11;100189.13;;;10.99;51.11
32873;BME280;19224;52.462;16.898;2023-03-18T09:05:42;100189.64;;;11.07;50.67
32873;BME280;19224;52.462;16.898;2023-03-18T09:08:14;100188.42;;;11.22;51.12
32873;BME280;19224;52.462;16.898;2023-03-18T09:10:50;100193.03;;;11.29;50.86
32873;BME280;19224;52.462;16.898;2023-03-18T09:13:23;100184.95;;;11.37;50.55
32873;BME280;19224;52.462;16.898;2023-03-18T09:15:53;100193.45;;;11.57;50.42
32873;BME280;19224;52.462;16.898;2023-03-18T09:18:24;100191.05;;;11.59;49.72
32873;BME280;19224;52.462;16.898;2023-03-18T09:20:54;100190.43;;;11.71;49.39
32873;BME280;19224;52.462;16.898;2023-03-18T09:23:25;100190.47;;;11.80;49.16
32873;BME280;19224;52.462;16.898;2023-03-18T09:25:56;100183.88;;;11.85;49.13
32873;BME280;19224;52.462;16.898;2023-03-18T09:28:28;100180.83;;;11.99;48.60
32873;BME280;19224;52.462;16.898;2023-03-18T09:30:59;100176.32;;;12.17;47.74
32873;BME280;19224;52.462;16.898;2023-03-18T09:33:29;100174.38;;;12.27;47.52
32873;BME280;19224;52.462;16.898;2023-03-18T09:36:00;100178.12;;;12.33;47.30
32873;BME280;19224;52.462;16.898;2023-03-18T09:38:31;100182.75;;;12.47;46.70
32873;BME280;19224;52.462;16.898;2023-03-18T09:41:43;100185.46;;;12.55;46.88
32873;BME280;19224;52.462;16.898;2023-03-18T09:44:23;100183.94;;;12.58;46.82
32873;BME280;19224;52.462;16.898;2023-03-18T09:47:31;100174.76;;;12.69;46.58
32873;BME280;19224;52.462;16.898;2023-03-18T09:55:48;100178.91;;;12.83;46.11
32873;BME280;19224;52.462;16.898;2023-03-18T09:59:01;100181.84;;;12.96;45.36
32873;BME280;19224;52.462;16.898;2023-03-18T10:01:28;100175.89;;;13.05;45.77
32873;BME280;19224;52.462;16.898;2023-03-18T10:04:52;100175.43;;;13.05;45.34
32873;BME280;19224;52.462;16.898;2023-03-18T10:06:39;100177.04;;;13.01;45.29
32873;BME280;19224;52.462;16.898;2023-03-18T10:09:36;100174.27;;;13.18;45.11
32873;BME280;19224;52.462;16.898;2023-03-18T10:12:32;100180.39;;;13.28;45.25
32873;BME280;19224;52.462;16.898;2023-03-18T10:15:35;100182.27;;;13.35;45.59
32873;BME280;19224;52.462;16.898;2023-03-18T10:24:30;100175.11;;;13.34;45.37
32873;BME280;19224;52.462;16.898;2023-03-18T10:33:36;100170.92;;;13.28;44.96
32873;BME280;19224;52.462;16.898;2023-03-18T10:36:47;100173.95;;;13.15;45.16
32873;BME280;19224;52.462;16.898;2023-03-18T10:39:26;100164.80;;;13.18;45.29
32873;BME280;19224;52.462;16.898;2023-03-18T10:42:25;100163.72;;;13.36;45.95
32873;BME280;19224;52.462;16.898;2023-03-18T10:45:06;100161.84;;;13.29;47.28
32873;BME280;19224;52.462;16.898;2023-03-18T10:47:31;100159.78;;;13.41;47.15
32873;BME280;19224;52.462;16.898;2023-03-18T10:50:40;100153.14;;;13.47;46.99
32873;BME280;19224;52.462;16.898;2023-03-18T10:53:41;100159.56;;;13.53;47.18
32873;BME280;19224;52.462;16.898;2023-03-18T10:56:18;100157.28;;;13.61;46.34
32873;BME280;19224;52.462;16.898;2023-03-18T10:58:52;100153.80;;;13.66;45.81
32873;BME280;19224;52.462;16.898;2023-03-18T11:01:24;100152.99;;;13.79;45.34
32873;BME280;19224;52.462;16.898;2023-03-18T11:04:00;100152.41;;;13.88;44.99
32873;BME280;19224;52.462;16.898;2023-03-18T11:09:19;100152.94;;;13.95;44.29
32873;BME280;19224;52.462;16.898;2023-03-18T11:12:12;100153.80;;;13.95;43.90
32873;BME280;19224;52.462;16.898;2023-03-18T11:14:35;100150.03;;;13.98;43.33
32873;BME280;19224;52.462;16.898;2023-03-18T11:17:21;100152.08;;;14.08;43.99
32873;BME280;19224;52.462;16.898;2023-03-18T11:22:50;100153.50;;;14.29;44.22
32873;BME280;19224;52.462;16.898;2023-03-18T11:25:24;100149.05;;;14.42;43.61
32873;BME280;19224;52.462;16.898;2023-03-18T11:28:17;100148.56;;;14.49;44.28
32873;BME280;19224;52.462;16.898;2023-03-18T11:30:50;100146.92;;;14.54;43.48
32873;BME280;19224;52.462;16.898;2023-03-18T11:33:28;100140.94;;;14.49;43.84
32873;BME280;19224;52.462;16.898;2023-03-18T11:36:05;100145.87;;;14.56;43.81
32873;BME280;19224;52.462;16.898;2023-03-18T11:38:43;100141.80;;;14.56;43.24
32873;BME280;19224;52.462;16.898;2023-03-18T11:41:23;100145.40;;;14.57;43.50
32873;BME280;19224;52.462;16.898;2023-03-18T11:46:56;100154.20;;;14.74;43.00
32873;BME280;19224;52.462;16.898;2023-03-18T11:49:30;100148.95;;;14.85;43.20
32873;BME280;19224;52.462;16.898;2023-03-18T11:55:14;100151.69;;;15.19;42.56
32873;BME280;19224;52.462;16.898;2023-03-18T12:01:17;100157.31;;;15.30;42.41
32873;BME280;19224;52.462;16.898;2023-03-18T12:10:24;100150.80;;;15.39;42.17
32873;BME280;19224;52.462;16.898;2023-03-18T12:13:31;100158.73;;;15.42;42.75
32873;BME280;19224;52.462;16.898;2023-03-18T12:25:13;100159.89;;;15.65;41.85
32873;BME280;19224;52.462;16.898;2023-03-18T12:28:10;100156.94;;;15.75;40.80
32873;BME280;19224;52.462;16.898;2023-03-18T12:43:08;100150.02;;;16.03;40.70
32873;BME280;19224;52.462;16.898;2023-03-18T12:45:41;100145.63;;;16.07;40.53
32873;BME280;19224;52.462;16.898;2023-03-18T12:48:31;100154.59;;;16.15;40.36
32873;BME280;19224;52.462;16.898;2023-03-18T12:51:09;100149.69;;;16.20;40.76
32873;BME280;19224;52.462;16.898;2023-03-18T12:53:56;100156.60;;;16.31;41.14
32873;BME280;19224;52.462;16.898;2023-03-18T12:56:28;100158.98;;;16.55;40.98
32873;BME280;19224;52.462;16.898;2023-03-18T12:59:25;100159.92;;;16.73;40.16
32873;BME280;19224;52.462;16.898;2023-03-18T13:04:58;100155.98;;;16.65;39.92
32873;BME280;19224;52.462;16.898;2023-03-18T13:07:42;100149.47;;;16.67;39.72
32873;BME280;19224;52.462;16.898;2023-03-18T13:10:22;100149.89;;;16.74;40.58
32873;BME280;19224;52.462;16.898;2023-03-18T13:12:56;100149.98;;;16.85;40.22
32873;BME280;19224;52.462;16.898;2023-03-18T13:15:39;100148.39;;;16.88;39.78
32873;BME280;19224;52.462;16.898;2023-03-18T13:18:45;100149.00;;;16.86;40.13
32873;BME280;19224;52.462;16.898;2023-03-18T13:20:57;100147.88;;;16.83;40.53
32873;BME280;19224;52.462;16.898;2023-03-18T13:23:44;100154.39;;;16.80;40.44
32873;BME280;19224;52.462;16.898;2023-03-18T13:32:56;100141.11;;;16.58;40.28
32873;BME280;19224;52.462;16.898;2023-03-18T13:36:01;100149.52;;;16.73;40.99
32873;BME280;19224;52.462;16.898;2023-03-18T13:38:46;100153.64;;;16.78;40.10
32873;BME280;19224;52.462;16.898;2023-03-18T13:41:44;100155.89;;;16.66;40.12
32873;BME280;19224;52.462;16.898;2023-03-18T13:44:21;100153.88;;;16.63;40.06
32873;BME280;19224;52.462;16.898;2023-03-18T13:47:05;100151.48;;;16.83;40.72
32873;BME280;19224;52.462;16.898;2023-03-18T13:49:40;100153.45;;;16.87;40.46
32873;BME280;19224;52.462;16.898;2023-03-18T13:52:41;100160.25;;;16.87;40.62
32873;BME280;19224;52.462;16.898;2023-03-18T14:00:42;100158.84;;;16.93;39.54
32873;BME280;19224;52.462;16.898;2023-03-18T14:08:52;100155.75;;;17.28;39.53
32873;BME280;19224;52.462;16.898;2023-03-18T14:11:43;100158.92;;;17.53;39.48
32873;BME280;19224;52.462;16.898;2023-03-18T14:17:55;100160.37;;;17.69;38.51
32873;BME280;19224;52.462;16.898;2023-03-18T14:20:37;100157.21;;;17.57;38.61
32873;BME280;19224;52.462;16.898;2023-03-18T14:23:40;100153.92;;;17.47;38.83
32873;BME280;19224;52.462;16.898;2023-03-18T14:26:24;100152.86;;;17.37;38.26
32873;BME280;19224;52.462;16.898;2023-03-18T14:34:52;100142.82;;;17.19;39.10
32873;BME280;19224;52.462;16.898;2023-03-18T14:37:24;100138.97;;;17.16;38.98
32873;BME280;19224;52.462;16.898;2023-03-18T14:40:04;100135.73;;;17.11;39.65
32873;BME280;19224;52.462;16.898;2023-03-18T14:45:42;100130.53;;;17.14;39.78
32873;BME280;19224;52.462;16.898;2023-03-18T14:48:24;100129.51;;;17.09;40.42
32873;BME280;19224;52.462;16.898;2023-03-18T14:51:09;100130.88;;;17.09;40.50
32873;BME280;19224;52.462;16.898;2023-03-18T14:53:40;100125.73;;;17.17;40.16
32873;BME280;19224;52.462;16.898;2023-03-18T14:56:20;100127.51;;;17.24;40.05
32873;BME280;19224;52.462;16.898;2023-03-18T14:58:54;100128.36;;;17.19;40.06
32873;BME280;19224;52.462;16.898;2023-03-18T15:01:40;100126.03;;;17.07;39.94
32873;BME280;19224;52.462;16.898;2023-03-18T15:04:21;100122.25;;;16.97;40.22
32873;BME280;19224;52.462;16.898;2023-03-18T15:06:55;100124.89;;;16.87;40.65
32873;BME280;19224;52.462;16.898;2023-03-18T15:09:29;100121.28;;;16.81;41.69
32873;BME280;19224;52.462;16.898;2023-03-18T15:12:23;100117.91;;;16.77;40.91